Weather History for Taos, NM

Change the Weather History Date:

Tuesday, July 9, 2013

  Actual Average Record
Temperature  
Mean Temperature 72 °F -  
Max Temperature 89 °F 82 °F 93 °F (2003)
Min Temperature 55 °F 48 °F 42 °F (1997)
Cooling Degree Days 7    
Growing Degree Days 22 (Base 50)    
Moisture  
Dew Point 48 °F    
Average Humidity 47    
Maximum Humidity 72    
Minimum Humidity 22    
Precipitation  
Precipitation 0.00 in - - ()
Sea Level Pressure  
Sea Level Pressure 30.38 in    
Wind  
Wind Speed 7 mph (NE)    
Max Wind Speed 23 mph    
Max Gust Speed 31 mph    
Visibility 10 miles    
Events Thunderstorm    
Averages and records for this station are not official NWS values.
T = Trace of Precipitation, MM = Missing Value Source: NWS Daily Summary

Daily Weather History Graph

Daily Weather History Graph

Search for Another Location

Airport:

Trip Planner

Search our weather history database for the weather conditions in past years. The results will help you decide how hot, cold, wet, or windy it might be!

Date:

Astronomy

Jul. 09, 2013 Rise Set
Actual Time 5:52 AM MDT 8:23 PM MDT
Civil Twilight 5:22 AM MDT 8:53 PM MDT
Nautical Twilight 4:45 AM MDT 9:30 PM MDT
Astronomical Twilight 4:04 AM MDT 10:11 PM MDT
Moon 7:15 AM MDT (7/9) 9:06 PM MDT (7/9)
Length of Visible Light 15h 30m
Length of Day
14h 30m
New Moon, 2% of the Moon is Illuminated
Jul 9
New Moon
Jul 15
First Quarter
Jul 22
Full
Jul 29
Last Quarter
Aug 6
New

Hourly Weather History & Observations

Time (MDT) Temp. Dew Point Humidity Pressure Visibility Wind Dir Wind Speed Gust Speed Precip Events Conditions
12:15 AM 62.6 °F 46.4 °F 55% 30.39 in 10.0 mi East 6.9 mph - N/A   Clear
12:35 AM 64.4 °F 46.4 °F 52% 30.40 in 10.0 mi ENE 8.1 mph - N/A   Clear
12:55 AM 62.6 °F 46.4 °F 55% 30.40 in 10.0 mi ENE 6.9 mph - N/A   Clear
1:15 AM 60.8 °F 46.4 °F 59% 30.39 in 10.0 mi NNW 4.6 mph - N/A   Clear
1:35 AM 60.8 °F 46.4 °F 59% 30.39 in 10.0 mi North 4.6 mph - N/A   Clear
1:55 AM 60.8 °F 46.4 °F 59% 30.39 in 10.0 mi North 4.6 mph - N/A   Clear
2:15 AM 59.0 °F 46.4 °F 63% 30.39 in 10.0 mi North 8.1 mph - N/A   Clear
2:35 AM 60.8 °F 48.2 °F 63% 30.38 in 10.0 mi NNE 6.9 mph - N/A   Clear
2:55 AM 59.0 °F 46.4 °F 63% 30.38 in 10.0 mi North 4.6 mph - N/A   Clear
3:15 AM 59.0 °F 46.4 °F 63% 30.38 in 10.0 mi Calm Calm - N/A   Clear
3:35 AM 57.2 °F 46.4 °F 67% 30.38 in 10.0 mi Calm Calm - N/A   Clear
3:55 AM 57.2 °F 46.4 °F 67% 30.38 in 10.0 mi North 4.6 mph - N/A   Clear
4:15 AM 55.4 °F 46.4 °F 72% 30.38 in 10.0 mi North 4.6 mph - N/A   Clear
4:35 AM 55.4 °F 46.4 °F 72% 30.39 in 10.0 mi North 5.8 mph - N/A   Clear
4:55 AM 55.4 °F 46.4 °F 72% 30.39 in 10.0 mi Calm Calm - N/A   Clear
5:15 AM 55.4 °F 46.4 °F 72% 30.39 in 10.0 mi North 5.8 mph - N/A   Clear
5:35 AM 55.4 °F 46.4 °F 72% 30.39 in 10.0 mi North 6.9 mph - N/A   Clear
5:55 AM 55.4 °F 46.4 °F 72% 30.39 in 10.0 mi North 4.6 mph - N/A   Clear
6:15 AM 55.4 °F 46.4 °F 72% 30.39 in 10.0 mi North 3.5 mph - N/A   Clear
6:35 AM 57.2 °F 48.2 °F 72% 30.40 in 10.0 mi North 3.5 mph - N/A   Clear
6:55 AM 59.0 °F 48.2 °F 67% 30.40 in 10.0 mi Calm Calm - N/A   Clear
7:15 AM 60.8 °F 48.2 °F 63% 30.41 in 10.0 mi Calm Calm - N/A   Clear
7:35 AM 62.6 °F 48.2 °F 59% 30.42 in 10.0 mi NNE 4.6 mph - N/A   Clear
7:55 AM 64.4 °F 48.2 °F 56% 30.42 in 10.0 mi North 3.5 mph - N/A   Clear
8:15 AM 64.4 °F 50.0 °F 59% 30.42 in 10.0 mi North 4.6 mph - N/A   Clear
8:35 AM 64.4 °F 50.0 °F 59% 30.43 in 10.0 mi North 4.6 mph - N/A   Clear
8:55 AM 66.2 °F 50.0 °F 56% 30.43 in 10.0 mi North 6.9 mph - N/A   Clear
9:15 AM 68.0 °F 50.0 °F 52% 30.43 in 10.0 mi North 5.8 mph - N/A   Clear
9:35 AM 69.8 °F 50.0 °F 49% 30.43 in 10.0 mi North 8.1 mph - N/A   Clear
9:55 AM 71.6 °F 51.8 °F 50% 30.42 in 10.0 mi North 5.8 mph - N/A   Clear
10:15 AM 73.4 °F 51.8 °F 47% 30.42 in 10.0 mi NNW 4.6 mph - N/A   Clear
10:35 AM 75.2 °F 51.8 °F 44% 30.42 in 10.0 mi NNE 3.5 mph - N/A   Clear
10:55 AM 78.8 °F 53.6 °F 42% 30.41 in 10.0 mi NNE 5.8 mph - N/A   Clear
11:15 AM 80.6 °F 51.8 °F 37% 30.41 in 10.0 mi North 6.9 mph - N/A   Clear
11:35 AM 80.6 °F 51.8 °F 37% 30.40 in 10.0 mi North 8.1 mph - N/A   Clear
11:55 AM 84.2 °F 50.0 °F 30% 30.39 in 10.0 mi North 9.2 mph - N/A   Clear
12:15 PM 86.0 °F 48.2 °F 27% 30.39 in 10.0 mi North 10.4 mph 17.3 mph N/A   Clear
12:35 PM 86.0 °F 46.4 °F 25% 30.38 in 10.0 mi NNW 8.1 mph - N/A   Clear
12:55 PM 87.8 °F 46.4 °F 24% 30.37 in 10.0 mi NW 9.2 mph - N/A   Clear
1:15 PM 86.0 °F 46.4 °F 25% 30.36 in 10.0 mi NW 4.6 mph - N/A   Clear
1:35 PM 87.8 °F 46.4 °F 24% 30.34 in 10.0 mi NNW 4.6 mph - N/A   Clear
1:55 PM 89.6 °F 46.4 °F 22% 30.34 in 10.0 mi North 5.8 mph 19.6 mph N/A Thunderstorm Clear
2:15 PM 89.6 °F 46.4 °F 22% 30.34 in 10.0 mi NNW 3.5 mph - N/A   Mostly Cloudy
2:35 PM 87.8 °F 46.4 °F 24% 30.34 in 10.0 mi NE 18.4 mph - N/A   Scattered Clouds
2:55 PM 84.2 °F 44.6 °F 25% 30.35 in 10.0 mi NNE 15.0 mph - N/A   Mostly Cloudy
3:15 PM 82.4 °F 44.6 °F 26% 30.35 in 10.0 mi South 15.0 mph 18.4 mph N/A   Overcast
3:35 PM 80.6 °F 44.6 °F 28% 30.35 in 10.0 mi SSE 18.4 mph 25.3 mph N/A   Overcast
3:55 PM 80.6 °F 44.6 °F 28% 30.36 in 10.0 mi South 6.9 mph - N/A Thunderstorm Thunderstorm
4:15 PM 80.6 °F 44.6 °F 28% 30.36 in 10.0 mi NNW 11.5 mph - N/A   Overcast
4:35 PM 73.4 °F 51.8 °F 47% 30.36 in 9.0 mi ENE 19.6 mph 28.8 mph N/A   Mostly Cloudy
4:55 PM 75.2 °F 51.8 °F 44% 30.36 in 10.0 mi East 15.0 mph 20.7 mph N/A   Scattered Clouds
5:15 PM 80.6 °F 48.2 °F 32% 30.35 in 10.0 mi ESE 18.4 mph 23.0 mph N/A   Clear
5:35 PM 78.8 °F 48.2 °F 34% 30.36 in 10.0 mi ESE 23.0 mph 31.1 mph N/A   Clear
5:55 PM 78.8 °F 48.2 °F 34% 30.35 in 10.0 mi ESE 18.4 mph 27.6 mph N/A   Clear
6:15 PM 75.2 °F 48.2 °F 38% 30.34 in 10.0 mi ESE 17.3 mph - N/A   Clear
6:35 PM 78.8 °F 48.2 °F 34% 30.33 in 10.0 mi ESE 13.8 mph - N/A   Clear
6:55 PM 78.8 °F 48.2 °F 34% 30.33 in 10.0 mi SSE 12.7 mph - N/A   Clear
7:15 PM 78.8 °F 46.4 °F 32% 30.33 in 10.0 mi SSE 8.1 mph - N/A   Clear
7:35 PM 78.8 °F 46.4 °F 32% 30.33 in 10.0 mi South 9.2 mph - N/A   Clear
7:55 PM 75.2 °F 46.4 °F 36% 30.33 in 10.0 mi South 10.4 mph - N/A   Mostly Cloudy
8:15 PM 73.4 °F 48.2 °F 41% 30.34 in 10.0 mi SSE 9.2 mph - N/A   Overcast
8:35 PM 71.6 °F 48.2 °F 43% 30.34 in 10.0 mi SE 6.9 mph - N/A   Overcast
8:55 PM 71.6 °F 48.2 °F 43% 30.35 in 10.0 mi East 6.9 mph - N/A   Scattered Clouds
9:15 PM 71.6 °F 46.4 °F 41% 30.35 in 10.0 mi SSE 6.9 mph - N/A   Partly Cloudy
9:35 PM 69.8 °F 46.4 °F 43% 30.36 in 10.0 mi SE 5.8 mph - N/A   Scattered Clouds
9:55 PM 71.6 °F 46.4 °F 41% 30.38 in 10.0 mi ESE 6.9 mph - N/A   Scattered Clouds
10:15 PM 69.8 °F 46.4 °F 43% 30.37 in 10.0 mi Calm Calm - N/A   Partly Cloudy
10:35 PM 68.0 °F 46.4 °F 46% 30.37 in 10.0 mi ESE 10.4 mph - N/A   Clear
10:55 PM 66.2 °F 46.4 °F 49% 30.38 in 10.0 mi SSE 8.1 mph - N/A   Clear
11:15 PM 66.2 °F 48.2 °F 52% 30.38 in 10.0 mi SSE 8.1 mph - N/A   Clear
11:35 PM 66.2 °F 46.4 °F 49% 30.38 in 10.0 mi SSE 6.9 mph - N/A   Clear
11:55 PM 66.2 °F 46.4 °F 49% 30.38 in 10.0 mi SSE 8.1 mph - N/A   Clear